X  Blizu METAR Podaci o vazduhoplovstvu        LEGR Granada
Temperatura
21°C Temperatura
13°C Tačka Rose
60% Vlaga



Vetar
24 KM/H
15 MPH
7 M/S
13 KTS



220°
JZ
Trenutna situacija

Mostly Cloudy Pretežno oblačno
Vazdušni pritisak 1010 (hPa) - 29.82 (inHg)
Vidljivost 30 (Milje) - 48 (km)
Aerodrom
Aerodromski kod. LEGR

Lokacija: Granada
Udaljenost: 56 (km)

Metar:
METAR LEGR 202200Z AUTO 22013G29KT 190V250 9999 SCT046 SCT057 BKN069 21/13 Q1012

Vreme: 21-10-2020 00:00 CEST